x

Aberporth (03502) Weather Station

4:00 - Sun 1st Feb 2015 All times are GMT.

  • Wind
    22mph, 36mph gusts
  • Air Temp 39°f
  • Sea Pressure 1007mb
  • Aberporth
  • Aberporth

More Historic Weather Station data

Upgrade to MSW Pro to gain access to the past 30 days of data for over 8000 Wavebouys and Weather Stations around the globe.

Join Pro

Comparision Forecast

View Surf forecast
   
dim. 02/01 4:00 22 36 mph 1007mb 39f
3:00 26 36 mph 1006mb 39f
2:00 26 34 mph 1006mb 39f
1:00 29 36 mph - 40f
8:00 38 51 mph 1004mb 39f
7:00 38 49 mph 1003mb 39f
6:00 36 53 mph 1003mb 39f
5:00 40 53 mph 1002mb 39f
4:00 40 52 mph 1002mb 39f
3:00 41 52 mph 1002mb 39f
2:00 40 54 mph 1001mb 39f
1:00 41 54 mph 1001mb 39f
12:00 39 56 mph 1001mb 39f
sam. 01/31 11:00 38 56 mph 1001mb 40f
10:00 45 62 mph 1000mb 40f
9:00 46 61 mph 999mb 40f
8:00 45 55 mph 999mb 40f
7:00 44 56 mph 998mb 40f
6:00 43 56 mph 997mb 40f
5:00 47 59 mph 996mb 40f
4:00 31 59 mph 995mb 38f
3:00 44 64 mph 993mb 41f
2:00 44 56 mph 992mb 41f
1:00 43 55 mph 991mb 41f
12:00 38 53 mph 990mb 41f
11:00 41 55 mph 990mb 36f
10:00 38 56 mph 988mb 41f
9:00 43 54 mph 987mb 40f
8:00 41 54 mph 985mb 42f
7:00 44 54 mph 984mb 41f
6:00 40 52 mph 983mb 40f
5:00 34 47 mph 984mb 40f
4:00 36 46 mph 983mb 40f
3:00 34 44 mph 983mb 40f
2:00 33 43 mph 983mb 39f
1:00 28 44 mph 983mb 38f
12:00 30 40 mph 983mb 39f
ven. 01/30 11:00 31 43 mph 982mb 39f
10:00 30 39 mph 982mb 39f
9:00 26 38 mph 983mb 40f
8:00 30 40 mph 982mb 40f
7:00 29 40 mph 982mb 40f
6:00 32 45 mph 982mb 40f
5:00 26 34 mph 982mb 42f
4:00 24 31 mph 983mb 42f
3:00 23 36 mph 983mb 42f
2:00 26 36 mph 983mb 43f
1:00 29 36 mph 983mb 42f
12:00 26 37 mph 983mb 42f
11:00 29 40 mph 983mb 42f
10:00 31 41 mph 983mb 42f
9:00 33 44 mph 982mb 42f
8:00 23 36 mph 982mb 40f
7:00 29 38 mph 982mb 40f
6:00 30 44 mph 982mb 40f
5:00 33 62 mph 981mb 40f
4:00 51 71 mph 978mb 40f
3:00 52 71 mph 975mb 40f
2:00 44 64 mph 976mb 40f
1:00 45 64 mph 977mb 42f
12:00 38 56 mph 978mb 42f
jeu. 01/29 11:00 39 52 mph 980mb 42f
10:00 31 46 mph 981mb 41f
9:00 31 51 mph 982mb 39f
8:00 43 56 mph 982mb 40f
7:00 36 54 mph 982mb 39f
6:00 38 52 mph 981mb 38f
5:00 37 51 mph 981mb 38f
4:00 37 52 mph 981mb 39f
3:00 37 54 mph 981mb 38f
2:00 36 53 mph 981mb 38f
1:00 39 51 mph 982mb 38f
12:00 33 45 mph 983mb 39f
11:00 32 44 mph 984mb 39f
10:00 32 45 mph 985mb 40f
9:00 31 43 mph 987mb 40f
8:00 31 45 mph 988mb 40f
7:00 32 43 mph 990mb 40f
6:00 29 46 mph 991mb 40f
5:00 31 44 mph 992mb 40f
4:00 31 46 mph 994mb 40f
3:00 29 41 mph 995mb 40f
2:00 33 43 mph 996mb 40f
1:00 32 47 mph 997mb 40f
12:00 33 51 mph 999mb 39f
mer. 01/28 11:00 32 46 mph 999mb 40f
10:00 34 48 mph 1000mb 40f
9:00 34 49 mph 1001mb 40f
8:00 34 51 mph 1002mb 40f
7:00 38 49 mph 1003mb 40f
6:00 31 47 mph 1004mb 40f